Time;durP1;ratioP1;P1;durP2;ratioP2;P2;SDS_P1;SDS_P2;PMS_P1;PMS_P2;Temp;Humidity;BMP_temperature;BMP_pressure;BME280_temperature;BME280_humidity;BME280_pressure;Samples;Min_cycle;Max_cycle;Signal;HPM_P1;HPM_P2
2023/04/22 00:02:38;;;;;;;7.30;4.60;;;;;;;16.66;55.14;98099.84;7008221;28;20282;-79
2023/04/22 00:06:00;;;;;;;4.93;4.50;;;;;;;16.15;56.19;98109.44;7021742;28;20238;-79
2023/04/22 00:09:22;;;;;;;5.30;4.30;;;;;;;16.59;54.30;98050.28;7034495;28;20294;-79
2023/04/22 00:12:45;;;;;;;5.57;4.90;;;;;;;17.17;53.88;98093.66;7033875;28;20665;-80
2023/04/22 00:16:07;;;;;;;6.17;4.80;;;;;;;17.16;53.63;98095.56;7034615;28;20403;-79
2023/04/22 00:19:29;;;;;;;5.60;4.70;;;;;;;17.01;53.76;98081.88;7021597;28;20675;-79
2023/04/22 00:22:51;;;;;;;5.53;5.03;;;;;;;17.26;53.45;98097.50;7005620;28;20903;-79
2023/04/22 00:26:14;;;;;;;4.93;4.53;;;;;;;17.36;52.93;98100.31;7005899;28;20269;-79
2023/04/22 00:29:35;;;;;;;5.40;4.73;;;;;;;17.18;53.38;98082.50;7006264;28;20231;-80
2023/04/22 00:32:57;;;;;;;4.90;4.40;;;;;;;17.33;52.99;98079.06;7005280;28;20239;-79
2023/04/22 00:36:18;;;;;;;4.60;4.20;;;;;;;17.22;53.05;98089.06;7005565;28;20680;-80
2023/04/22 00:39:40;;;;;;;7.10;5.07;;;;;;;17.28;52.99;98082.53;7005128;28;20272;-79
2023/04/22 00:43:03;;;;;;;4.90;4.50;;;;;;;17.22;53.45;98094.50;7003387;28;20310;-80
2023/04/22 00:46:25;;;;;;;6.10;4.57;;;;;;;17.22;53.43;98089.06;7004526;28;20252;-80
2023/04/22 00:49:46;;;;;;;5.97;4.47;;;;;;;17.37;52.54;98074.69;7003688;28;20276;-79
2023/04/22 00:53:08;;;;;;;7.67;5.17;;;;;;;17.23;52.50;98068.91;7002955;28;20313;-79
2023/04/22 00:56:31;;;;;;;4.93;4.40;;;;;;;17.29;52.83;98094.28;7004595;28;20231;-80
2023/04/22 00:59:55;;;;;;;5.73;4.67;;;;;;;17.29;52.77;98094.28;7029238;28;20242;-80
2023/04/22 01:03:17;;;;;;;8.90;4.57;;;;;;;17.22;52.69;98099.16;7030538;28;20337;-80
2023/04/22 01:06:39;;;;;;;5.80;4.80;;;;;;;16.86;54.19;98091.84;7028184;28;20376;-80
2023/04/22 01:10:02;;;;;;;7.03;5.00;;;;;;;16.94;53.89;98089.47;7026124;28;20201;-80
2023/04/22 01:13:24;;;;;;;5.30;4.80;;;;;;;17.00;53.72;98088.41;7027065;28;20346;-80
2023/04/22 01:16:47;;;;;;;7.10;5.00;;;;;;;16.84;54.17;98092.09;7028698;28;20208;-79
2023/04/22 01:20:09;;;;;;;7.10;4.63;;;;;;;16.77;54.37;98087.97;7031856;28;20194;-80
2023/04/22 01:23:32;;;;;;;5.27;4.67;;;;;;;16.41;55.19;98092.31;7033936;28;20236;-80
2023/04/22 01:26:54;;;;;;;8.37;5.03;;;;;;;16.58;55.40;98087.53;7023583;28;20253;-80
2023/04/22 01:30:16;;;;;;;5.27;4.50;;;;;;;16.68;54.72;98092.28;7007938;28;20303;-80
2023/04/22 01:33:38;;;;;;;5.40;4.93;;;;;;;16.78;54.23;98098.59;7008387;28;20275;-80
2023/04/22 01:37:00;;;;;;;5.63;5.13;;;;;;;16.72;54.18;98093.38;7009685;28;20303;-80
2023/04/22 01:40:23;;;;;;;4.80;4.40;;;;;;;16.53;54.46;98105.75;7018610;28;20345;-79
2023/04/22 01:43:44;;;;;;;5.43;4.93;;;;;;;16.15;55.27;98084.16;7019278;28;20245;-80
2023/04/22 01:47:06;;;;;;;6.70;5.23;;;;;;;16.30;55.79;98114.22;7011781;28;20404;-80
2023/04/22 01:50:28;;;;;;;5.27;4.70;;;;;;;16.17;55.84;98092.88;7018233;28;20203;-80
2023/04/22 01:53:50;;;;;;;6.47;4.93;;;;;;;16.15;56.29;98100.47;7041548;28;20253;-79
2023/04/22 01:57:15;;;;;;;5.77;5.27;;;;;;;16.30;55.61;98071.53;7044623;28;20224;-79
2023/04/22 02:00:36;;;;;;;6.07;5.10;;;;;;;16.38;55.61;98086.53;7041054;28;20209;-79
2023/04/22 02:03:58;;;;;;;7.30;5.43;;;;;;;16.47;55.33;98101.34;7020693;28;20228;-80
2023/04/22 02:07:19;;;;;;;6.83;6.10;;;;;;;16.31;55.79;98118.56;7009080;28;20351;-79
2023/04/22 02:10:41;;;;;;;6.07;5.33;;;;;;;16.72;54.68;98120.59;7008451;28;20785;-79
2023/04/22 02:14:04;;;;;;;5.37;4.87;;;;;;;16.48;55.17;98106.53;7020264;28;20367;-79
2023/04/22 02:17:25;;;;;;;6.07;5.30;;;;;;;16.50;54.92;98103.53;7037132;28;20264;-79
2023/04/22 02:20:47;;;;;;;5.80;5.20;;;;;;;16.59;54.69;98115.59;7036465;28;20209;-80
2023/04/22 02:24:09;;;;;;;5.70;5.23;;;;;;;16.41;55.14;98114.09;7008902;28;20224;-79
2023/04/22 02:27:30;;;;;;;6.00;5.40;;;;;;;16.30;55.52;98116.94;7009116;28;20270;-79
2023/04/22 02:30:53;;;;;;;6.23;5.50;;;;;;;16.13;55.81;98099.91;7016482;28;20217;-80
2023/04/22 02:34:15;;;;;;;7.47;5.40;;;;;;;16.18;56.30;98121.72;7036890;28;20372;-79
2023/04/22 02:37:36;;;;;;;7.23;6.27;;;;;;;16.28;55.92;98121.81;7037394;28;20203;-79
2023/04/22 02:40:58;;;;;;;6.80;5.90;;;;;;;16.30;55.45;98125.09;7035939;28;20423;-80
2023/04/22 02:44:19;;;;;;;9.03;6.33;;;;;;;15.53;57.67;98126.41;7031813;28;20708;-80
2023/04/22 02:47:42;;;;;;;6.83;6.23;;;;;;;16.07;56.88;98133.56;7032406;28;20202;-80
2023/04/22 02:51:05;;;;;;;7.10;6.37;;;;;;;16.06;56.31;98126.47;7032767;28;20286;-79
2023/04/22 02:54:26;;;;;;;6.97;6.37;;;;;;;15.83;57.09;98130.31;7031724;28;20241;-79
2023/04/22 02:57:48;;;;;;;7.03;6.33;;;;;;;15.72;57.31;98135.88;7032587;28;20271;-80
2023/04/22 03:01:10;;;;;;;6.90;6.20;;;;;;;15.70;57.57;98138.03;7033073;28;20296;-80
2023/04/22 03:04:33;;;;;;;7.27;5.80;;;;;;;15.40;57.95;98105.06;7031440;28;20232;-80
2023/04/22 03:07:54;;;;;;;7.20;6.50;;;;;;;15.77;57.70;98144.94;7032667;28;20301;-80
2023/04/22 03:11:16;;;;;;;6.53;5.83;;;;;;;15.91;56.95;98142.63;7033459;28;20338;-80
2023/04/22 03:14:37;;;;;;;10.70;6.40;;;;;;;15.70;57.13;98127.16;7032009;28;20331;-80
2023/04/22 03:17:59;;;;;;;7.37;6.17;;;;;;;15.86;56.91;98129.00;7034722;28;20298;-80
2023/04/22 03:21:22;;;;;;;7.30;6.07;;;;;;;15.87;56.67;98136.88;7033516;28;20354;-80
2023/04/22 03:24:43;;;;;;;6.17;5.57;;;;;;;15.55;57.25;98135.97;7033973;28;20237;-79
2023/04/22 03:28:05;;;;;;;7.00;6.40;;;;;;;15.56;57.14;98104.16;7035669;28;20706;-80
2023/04/22 03:31:26;;;;;;;7.13;5.80;;;;;;;15.75;57.28;98128.03;7033082;28;20269;-80
2023/04/22 03:34:48;;;;;;;7.80;6.27;;;;;;;15.68;57.08;98119.25;7030028;28;20369;-80
2023/04/22 03:38:11;;;;;;;7.67;6.37;;;;;;;15.57;57.30;98120.22;7030605;28;20571;-80
2023/04/22 03:41:32;;;;;;;7.33;5.70;;;;;;;15.81;57.01;98126.22;7029700;28;20208;-79
2023/04/22 03:44:54;;;;;;;7.20;5.90;;;;;;;15.73;56.75;98116.59;7030528;28;20314;-80
2023/04/22 03:48:15;;;;;;;6.20;5.60;;;;;;;15.83;56.34;98115.91;7030465;28;20207;-80
2023/04/22 03:51:37;;;;;;;7.13;6.53;;;;;;;15.56;56.82;98121.28;7030313;28;20323;-80
2023/04/22 03:55:00;;;;;;;8.27;7.20;;;;;;;15.39;57.18;98133.31;7028934;28;20240;-78
2023/04/22 03:58:21;;;;;;;6.13;5.53;;;;;;;14.85;58.91;98125.97;7001912;28;20239;-80
2023/04/22 04:01:43;;;;;;;6.93;6.00;;;;;;;15.09;57.71;98092.94;7002871;28;20288;-79
2023/04/22 04:05:05;;;;;;;6.87;6.27;;;;;;;15.47;57.24;98130.97;7014314;28;20320;-80
2023/04/22 04:08:26;;;;;;;5.93;5.33;;;;;;;15.62;57.01;98131.16;7032830;28;20226;-80
2023/04/22 04:11:49;;;;;;;6.57;5.97;;;;;;;15.41;56.32;98115.69;7031886;28;20657;-79
2023/04/22 04:15:11;;;;;;;6.50;5.83;;;;;;;15.47;56.54;98117.41;7026760;28;20368;-80
2023/04/22 04:18:32;;;;;;;5.80;5.30;;;;;;;15.49;56.45;98114.41;7031559;28;20223;-80
2023/04/22 04:21:54;;;;;;;5.13;4.70;;;;;;;15.05;56.79;98124.38;7019941;28;20294;-80
2023/04/22 04:25:17;;;;;;;5.97;5.23;;;;;;;14.66;58.21;98102.88;7031073;28;20651;-80
2023/04/22 04:28:40;;;;;;;5.93;5.33;;;;;;;15.19;57.03;98120.25;7027544;28;20287;-79
2023/04/22 04:32:02;;;;;;;7.27;5.70;;;;;;;15.20;56.82;98115.63;7032612;28;20664;-79
2023/04/22 04:35:23;;;;;;;5.57;5.07;;;;;;;15.02;56.69;98118.63;7032246;28;20222;-80
2023/04/22 04:38:45;;;;;;;8.23;4.90;;;;;;;15.13;56.18;98101.41;7026681;28;20650;-80
2023/04/22 04:42:08;;;;;;;5.67;4.97;;;;;;;14.99;56.95;98106.38;7032080;28;20869;-80
2023/04/22 04:45:31;;;;;;;6.53;5.27;;;;;;;14.96;57.53;98119.63;7034136;28;20689;-80
2023/04/22 04:48:53;;;;;;;5.40;4.90;;;;;;;14.87;57.06;98097.50;7023217;28;20292;-80
2023/04/22 04:52:15;;;;;;;6.90;5.17;;;;;;;14.53;58.70;98112.19;7006322;28;20204;-80
2023/04/22 04:55:36;;;;;;;4.77;4.37;;;;;;;14.98;57.06;98098.50;7009908;28;20280;-80
2023/04/22 04:58:58;;;;;;;6.67;4.47;;;;;;;14.93;56.90;98117.41;7020600;28;20290;-80
2023/04/22 05:02:21;;;;;;;5.67;5.17;;;;;;;15.06;56.84;98122.47;7032715;28;20623;-80
2023/04/22 05:05:45;;;;;;;7.17;4.80;;;;;;;14.62;57.09;98091.69;7036621;28;20230;-80
2023/04/22 05:09:07;;;;;;;5.77;4.70;;;;;;;14.77;57.24;98134.53;7021564;28;20205;-80
2023/04/22 05:12:28;;;;;;;5.90;5.40;;;;;;;14.66;57.81;98138.16;7012588;28;20206;-80
2023/04/22 05:15:50;;;;;;;4.73;4.30;;;;;;;14.97;56.44;98122.09;7012985;28;20283;-80
2023/04/22 05:19:13;;;;;;;6.43;5.23;;;;;;;15.07;55.87;98118.69;7039656;28;20232;-80
2023/04/22 05:22:34;;;;;;;5.17;4.63;;;;;;;15.13;56.28;98128.56;7041617;28;20252;-80
2023/04/22 05:25:56;;;;;;;6.13;5.53;;;;;;;15.03;56.66;98128.41;7042820;28;20248;-80
2023/04/22 05:29:17;;;;;;;5.43;4.93;;;;;;;14.82;57.44;98112.91;7044492;28;20255;-80
2023/04/22 05:32:39;;;;;;;5.47;4.97;;;;;;;15.16;56.92;98128.06;7029916;28;20287;-80
2023/04/22 05:36:02;;;;;;;6.43;5.00;;;;;;;15.46;56.08;98128.50;7022023;28;20238;-80
2023/04/22 05:39:23;;;;;;;5.60;5.10;;;;;;;15.56;56.01;98126.72;7033340;28;20215;-80
2023/04/22 05:42:45;;;;;;;4.67;4.27;;;;;;;15.40;55.58;98114.00;7037707;28;20234;-80
2023/04/22 05:46:06;;;;;;;5.47;4.60;;;;;;;15.33;55.17;98135.13;7038960;28;20244;-80
2023/04/22 05:49:28;;;;;;;4.33;4.00;;;;;;;15.48;55.21;98121.75;7029771;28;20232;-80
2023/04/22 05:52:50;;;;;;;4.60;4.20;;;;;;;15.51;55.68;98131.28;7008362;28;20340;-81
2023/04/22 05:56:12;;;;;;;4.93;4.03;;;;;;;15.72;54.83;98136.72;7010214;28;20329;-80
2023/04/22 05:59:33;;;;;;;4.30;3.90;;;;;;;16.07;53.67;98144.44;7010826;28;20273;-81
2023/04/22 06:02:55;;;;;;;3.90;3.60;;;;;;;16.12;53.08;98128.19;7012375;28;20232;-81
2023/04/22 06:06:17;;;;;;;3.90;3.50;;;;;;;15.60;53.27;98114.28;7038374;28;20250;-80
2023/04/22 06:09:40;;;;;;;6.77;3.87;;;;;;;15.81;54.02;98148.75;7040052;28;20250;-82
2023/04/22 06:13:01;;;;;;;3.90;3.40;;;;;;;16.21;53.18;98132.09;7037018;28;20224;-81
2023/04/22 06:16:23;;;;;;;4.40;3.70;;;;;;;16.32;52.43;98136.53;7037170;28;20313;-80
2023/04/22 06:19:44;;;;;;;3.63;3.40;;;;;;;16.66;51.74;98136.06;7029378;28;20650;-81
2023/04/22 06:23:06;;;;;;;3.77;3.47;;;;;;;16.77;51.79;98161.47;7034668;28;20233;-81
2023/04/22 06:26:28;;;;;;;4.10;3.67;;;;;;;17.08;51.21;98158.72;7030987;28;20246;-80
2023/04/22 06:29:50;;;;;;;6.07;3.60;;;;;;;17.41;50.86;98169.31;7020975;28;20725;-80
2023/04/22 06:33:12;;;;;;;3.90;3.60;;;;;;;17.83;50.38;98142.81;7021303;28;20219;-80
2023/04/22 06:36:36;;;;;;;3.57;3.27;;;;;;;18.17;49.50;98126.81;7014489;28;20292;-80
2023/04/22 06:39:57;;;;;;;3.80;3.50;;;;;;;18.52;49.38;98146.00;7010623;28;20213;-80
2023/04/22 06:43:20;;;;;;;3.33;3.03;;;;;;;18.76;48.08;98139.72;7015987;28;20236;-80
2023/04/22 06:46:42;;;;;;;4.33;3.27;;;;;;;19.19;46.46;98149.25;7013348;28;20305;-81
2023/04/22 06:50:04;;;;;;;3.27;2.97;;;;;;;19.50;45.22;98150.84;7019092;28;20351;-81
2023/04/22 06:53:25;;;;;;;3.83;3.10;;;;;;;19.52;45.17;98154.13;7036063;28;20225;-81
2023/04/22 06:56:47;;;;;;;5.30;3.27;;;;;;;19.66;44.73;98147.81;7020563;28;20296;-83
2023/04/22 07:00:11;;;;;;;3.50;3.20;;;;;;;19.44;45.33;98113.69;7008664;28;20295;-81
2023/04/22 07:03:33;;;;;;;3.40;3.10;;;;;;;19.90;43.91;98153.44;7010961;28;20228;-85
2023/04/22 07:06:54;;;;;;;3.03;2.83;;;;;;;19.72;43.94;98149.44;7017039;28;20302;-81
2023/04/22 07:10:16;;;;;;;3.00;2.77;;;;;;;19.99;43.37;98140.81;7008271;28;20582;-82
2023/04/22 07:13:37;;;;;;;4.93;3.30;;;;;;;20.24;42.73;98129.75;7023769;28;20229;-82
2023/04/22 07:17:00;;;;;;;2.83;2.53;;;;;;;20.50;42.20;98139.44;7037546;28;20307;-82
2023/04/22 07:20:22;;;;;;;3.93;3.00;;;;;;;19.67;42.89;98082.97;7039172;28;20268;-82
2023/04/22 07:23:44;;;;;;;3.97;3.37;;;;;;;20.53;42.07;98136.16;7044137;28;20400;-82
2023/04/22 07:27:05;;;;;;;2.90;2.70;;;;;;;20.84;41.67;98117.25;7033935;28;20280;-81
2023/04/22 07:30:27;;;;;;;3.37;3.07;;;;;;;21.40;39.92;98128.53;7024083;28;20206;-82
2023/04/22 07:33:50;;;;;;;3.20;2.90;;;;;;;21.23;39.43;98087.84;7037128;28;20224;-81
2023/04/22 07:37:11;;;;;;;3.27;2.97;;;;;;;21.27;39.42;98121.81;7011318;28;20303;-82
2023/04/22 07:40:33;;;;;;;4.87;2.80;;;;;;;21.39;39.51;98122.25;7020298;28;20213;-81
2023/04/22 07:43:54;;;;;;;3.27;2.77;;;;;;;21.34;39.52;98103.09;7020999;28;20218;-82
2023/04/22 07:47:16;;;;;;;6.83;3.00;;;;;;;21.71;39.59;98095.00;7012680;28;20251;-81
2023/04/22 07:50:39;;;;;;;3.87;2.80;;;;;;;21.66;38.58;98075.81;7025786;28;20208;-82
2023/04/22 07:54:01;;;;;;;3.10;2.80;;;;;;;22.23;39.09;98094.84;7010994;28;20320;-82
2023/04/22 07:57:22;;;;;;;4.60;2.80;;;;;;;22.28;38.22;98077.47;7021322;28;20225;-81
2023/04/22 08:00:44;;;;;;;2.77;2.50;;;;;;;22.43;38.12;98096.50;7024076;28;20201;-81
2023/04/22 08:04:06;;;;;;;3.57;2.63;;;;;;;22.99;37.01;98110.94;7007374;28;20304;-82
2023/04/22 08:07:29;;;;;;;3.03;2.80;;;;;;;23.53;35.67;98109.16;7015847;28;20225;-82
2023/04/22 08:10:50;;;;;;;2.60;2.40;;;;;;;23.57;34.72;98123.94;7033615;28;20323;-82
2023/04/22 08:14:12;;;;;;;2.77;2.57;;;;;;;23.41;35.53;98111.59;7038632;28;20784;-81
2023/04/22 08:17:33;;;;;;;2.67;2.47;;;;;;;22.94;34.57;98114.63;7016009;28;20292;-82
2023/04/22 08:20:55;;;;;;;3.07;2.73;;;;;;;23.26;35.63;98111.84;7019993;28;20205;-81
2023/04/22 08:24:18;;;;;;;2.60;2.40;;;;;;;23.50;35.28;98111.69;7025029;28;20222;-82
2023/04/22 08:27:40;;;;;;;3.10;2.73;;;;;;;23.97;34.40;98092.03;7021946;28;20318;-82
2023/04/22 08:31:01;;;;;;;3.20;2.63;;;;;;;23.93;33.71;98124.06;7029876;28;20223;-82
2023/04/22 08:34:23;;;;;;;3.03;2.67;;;;;;;23.28;35.22;98112.38;7023006;28;20231;-82
2023/04/22 08:37:45;;;;;;;3.17;2.57;;;;;;;24.11;33.58;98112.94;7012133;28;20210;-82
2023/04/22 08:41:08;;;;;;;2.50;2.30;;;;;;;24.31;32.57;98092.38;7011358;28;20222;-82
2023/04/22 08:44:29;;;;;;;2.60;2.40;;;;;;;24.12;33.30;98111.78;7007737;28;20259;-82
2023/04/22 08:47:52;;;;;;;3.60;2.33;;;;;;;23.06;33.85;98076.44;7010701;28;20691;-82
2023/04/22 08:51:15;;;;;;;2.87;2.20;;;;;;;23.72;33.11;98098.06;7012483;28;20198;-82
2023/04/22 08:54:37;;;;;;;4.23;2.80;;;;;;;24.09;32.89;98093.16;7039961;28;20242;-82
2023/04/22 08:58:02;;;;;;;3.00;2.70;;;;;;;24.11;32.80;98096.41;7021145;28;20211;-82
2023/04/22 09:01:24;;;;;;;2.57;2.37;;;;;;;24.67;31.21;98112.50;7040297;28;20214;-82
2023/04/22 09:04:48;;;;;;;1.97;1.83;;;;;;;25.31;30.34;98103.72;7041387;28;20228;-84
2023/04/22 09:08:10;;;;;;;2.40;2.20;;;;;;;24.62;31.55;98123.63;7038422;28;20318;-82
2023/04/22 09:11:33;;;;;;;3.87;2.20;;;;;;;24.99;30.54;98074.44;7034829;28;20201;-82
2023/04/22 09:14:56;;;;;;;4.23;2.20;;;;;;;25.37;30.25;98108.75;7012397;28;20273;-83
2023/04/22 09:18:18;;;;;;;2.40;2.20;;;;;;;26.13;29.36;98083.38;7009154;28;20296;-83
2023/04/22 09:21:40;;;;;;;2.43;2.10;;;;;;;26.81;28.60;98066.03;7009068;28;20209;-83
2023/04/22 09:25:03;;;;;;;3.67;2.43;;;;;;;26.94;27.79;98082.44;7036556;28;20228;-83
2023/04/22 09:28:25;;;;;;;1.90;1.70;;;;;;;26.93;27.68;98088.31;7041579;28;20246;-83
2023/04/22 09:31:50;;;;;;;4.00;2.30;;;;;;;26.64;26.51;98077.09;7032688;28;20209;-83
2023/04/22 09:35:11;;;;;;;2.27;2.00;;;;;;;26.36;27.64;98082.13;7032078;28;20241;-82
2023/04/22 09:38:33;;;;;;;2.37;1.90;;;;;;;27.03;26.10;98049.22;7031513;28;20246;-82
2023/04/22 09:41:55;;;;;;;2.10;2.00;;;;;;;27.30;26.35;98069.03;7046270;28;20226;-82
2023/04/22 09:45:26;;;;;;;2.20;2.00;;;;;;;26.60;25.58;98057.59;7033076;28;20217;-81
2023/04/22 09:48:49;;;;;;;1.73;1.63;;;;;;;26.44;25.72;98072.22;7030242;28;20220;-85
2023/04/22 09:52:11;;;;;;;2.60;1.73;;;;;;;26.26;27.52;98052.03;7032838;28;20202;-86
2023/04/22 09:55:35;;;;;;;1.93;1.83;;;;;;;26.86;26.54;98052.84;7011987;28;20244;-82
2023/04/22 09:58:56;;;;;;;1.90;1.70;;;;;;;27.34;24.52;98060.88;7031230;28;20653;-82
2023/04/22 10:02:18;;;;;;;1.80;1.70;;;;;;;26.30;26.58;98066.81;7022203;28;20278;-82
2023/04/22 10:05:43;;;;;;;2.07;1.97;;;;;;;25.71;27.26;98067.50;7020040;28;20233;-83
2023/04/22 10:09:06;;;;;;;1.60;1.50;;;;;;;26.33;26.32;98055.13;7020358;28;20224;-81
2023/04/22 10:12:27;;;;;;;2.57;1.70;;;;;;;27.20;25.33;98043.69;7039173;28;20299;-81
2023/04/22 10:15:51;;;;;;;3.83;1.97;;;;;;;27.06;25.32;98043.84;7037918;28;20251;-86
2023/04/22 10:19:15;;;;;;;2.30;2.10;;;;;;;28.35;24.45;98042.06;7038765;28;20234;-82
2023/04/22 10:22:38;;;;;;;1.90;1.80;;;;;;;27.29;23.02;98023.13;7033520;28;20193;-85
2023/04/22 10:25:59;;;;;;;3.80;1.83;;;;;;;26.75;24.36;98034.97;7006812;28;20704;-79
2023/04/22 10:29:21;;;;;;;1.60;1.30;;;;;;;26.62;24.53;98035.97;7008158;28;20274;-84
2023/04/22 10:32:43;;;;;;;2.30;2.10;;;;;;;25.36;25.30;97993.97;7008129;28;20229;-83
2023/04/22 10:36:09;;;;;;;1.70;1.60;;;;;;;27.68;23.95;98013.66;7008826;28;20701;-81
2023/04/22 10:39:32;;;;;;;1.70;1.60;;;;;;;29.03;23.18;98028.44;7009809;28;20214;-81
2023/04/22 10:43:02;;;;;;;2.97;2.00;;;;;;;27.79;22.14;98017.69;7008871;28;20281;-80
2023/04/22 10:47:00;;;;;;;2.10;1.47;;;;;;;27.92;23.47;98019.41;7009102;28;20924;-82
2023/04/22 10:50:25;;;;;;;1.90;1.70;;;;;;;29.56;22.55;98021.97;7007850;28;20233;-81
2023/04/22 10:53:46;;;;;;;1.90;1.80;;;;;;;29.22;22.45;98008.47;7032494;28;20229;-82
2023/04/22 10:57:11;;;;;;;1.90;1.80;;;;;;;28.19;24.35;98014.16;7035763;28;20721;-81
2023/04/22 11:00:43;;;;;;;1.90;1.80;;;;;;;27.75;23.24;98000.91;7020781;28;20214;-80
2023/04/22 11:04:25;;;;;;;1.70;1.60;;;;;;;28.99;23.29;97999.75;7006200;28;20325;-80
2023/04/22 11:07:48;;;;;;;2.07;1.87;;;;;;;29.46;20.90;97994.59;7000406;28;20311;-80
2023/04/22 11:11:12;;;;;;;3.43;1.77;;;;;;;28.91;21.18;97988.72;7007811;28;20216;-81
2023/04/22 11:14:35;;;;;;;1.93;1.77;;;;;;;28.39;22.13;97960.69;7013880;28;20345;-81
2023/04/22 11:17:57;;;;;;;2.47;1.73;;;;;;;29.44;21.00;97981.06;7033758;28;20553;-81
2023/04/22 11:21:19;;;;;;;1.93;1.80;;;;;;;29.64;20.02;97987.69;7033451;28;20200;-81
2023/04/22 11:24:53;;;;;;;4.90;1.90;;;;;;;30.08;19.10;97986.69;7033371;28;20247;-81
2023/04/22 11:28:15;;;;;;;2.53;1.67;;;;;;;28.98;20.92;97998.13;7005280;28;20250;-80
2023/04/22 11:31:38;;;;;;;3.33;1.63;;;;;;;29.51;19.48;97997.97;7025045;28;20673;-81
2023/04/22 11:35:03;;;;;;;3.43;1.70;;;;;;;29.79;20.51;97973.88;7031456;28;20309;-81
2023/04/22 11:38:24;;;;;;;1.60;1.50;;;;;;;29.69;19.06;97954.09;7033680;28;20188;-84
2023/04/22 11:41:46;;;;;;;3.43;1.97;;;;;;;29.85;19.50;97983.59;7030592;28;20200;-79
2023/04/22 11:45:10;;;;;;;2.70;2.03;;;;;;;30.20;18.37;97965.25;7004491;28;20364;-78
2023/04/22 11:48:33;;;;;;;2.87;1.80;;;;;;;30.73;18.66;97972.38;7003216;28;20230;-85
2023/04/22 11:51:55;;;;;;;4.10;2.00;;;;;;;30.66;18.72;97983.31;7004013;28;20285;-80
2023/04/22 11:55:19;;;;;;;2.03;1.83;;;;;;;30.37;20.16;97980.84;6999999;28;20236;-80
2023/04/22 11:58:41;;;;;;;2.60;1.97;;;;;;;30.23;20.09;97989.59;7010439;28;20214;-81
2023/04/22 12:02:05;;;;;;;2.57;2.00;;;;;;;30.26;19.67;97969.41;7031618;28;20212;-83
2023/04/22 12:05:39;;;;;;;2.20;1.70;;;;;;;29.08;21.49;97986.56;7031895;28;20720;-80
2023/04/22 12:09:01;;;;;;;2.23;1.97;;;;;;;28.64;21.73;97970.72;7033428;28;20229;-81
2023/04/22 12:12:24;;;;;;;2.37;1.80;;;;;;;29.14;22.08;97974.09;7033539;28;20206;-80
2023/04/22 12:15:46;;;;;;;2.83;1.80;;;;;;;30.14;21.09;97971.44;7033113;28;20679;-80
2023/04/22 12:19:07;;;;;;;3.10;1.90;;;;;;;30.48;20.91;97971.63;7033834;28;20293;-80
2023/04/22 12:22:32;;;;;;;3.03;1.83;;;;;;;30.41;20.14;97968.66;7031140;28;20281;-80
2023/04/22 12:25:53;;;;;;;2.63;1.63;;;;;;;29.46;20.87;97977.94;7008716;28;20242;-80
2023/04/22 12:29:15;;;;;;;4.87;2.33;;;;;;;29.82;21.02;97966.81;7010098;28;20240;-80
2023/04/22 12:32:37;;;;;;;4.73;2.17;;;;;;;29.74;20.68;97938.00;7032291;28;20234;-80
2023/04/22 12:35:58;;;;;;;3.67;2.30;;;;;;;29.31;21.45;97976.66;7031806;28;20235;-80
2023/04/22 12:39:21;;;;;;;3.60;2.23;;;;;;;28.57;21.92;97959.38;7010268;28;20211;-80
2023/04/22 12:42:43;;;;;;;2.53;2.17;;;;;;;29.04;21.90;97976.50;7014507;28;20275;-80
2023/04/22 12:46:05;;;;;;;3.83;2.00;;;;;;;29.15;21.39;97978.50;7019082;28;20277;-80
2023/04/22 12:49:27;;;;;;;4.40;2.00;;;;;;;28.78;21.54;97971.19;7011228;28;20275;-80
2023/04/22 12:52:48;;;;;;;5.17;1.80;;;;;;;27.73;22.08;97953.31;7009603;28;20307;-80
2023/04/22 12:56:11;;;;;;;2.43;2.00;;;;;;;28.25;22.19;97962.88;7009668;28;20732;-80
2023/04/22 12:59:32;;;;;;;3.80;2.00;;;;;;;29.05;22.13;97965.06;7018397;28;20739;-80
2023/04/22 13:02:54;;;;;;;3.47;1.80;;;;;;;28.68;22.24;97965.28;7012257;28;20220;-80
2023/04/22 13:06:15;;;;;;;2.87;2.10;;;;;;;28.62;23.06;97972.19;7007188;28;20225;-80
2023/04/22 13:09:37;;;;;;;2.77;2.10;;;;;;;29.21;22.28;97971.56;7005628;28;20318;-80
2023/04/22 13:13:02;;;;;;;2.10;1.90;;;;;;;28.78;22.59;97973.19;7030509;28;20313;-80
2023/04/22 13:16:24;;;;;;;2.57;1.87;;;;;;;28.78;22.69;97968.44;7034726;28;20191;-80
2023/04/22 13:19:47;;;;;;;6.50;2.10;;;;;;;28.46;22.17;97966.47;7036349;28;20327;-80
2023/04/22 13:23:09;;;;;;;5.93;1.87;;;;;;;28.70;22.65;97966.56;7035601;28;20230;-80
2023/04/22 13:26:31;;;;;;;3.97;1.83;;;;;;;28.66;22.81;97935.09;7036335;28;20288;-80
2023/04/22 13:29:53;;;;;;;2.73;2.00;;;;;;;28.82;22.61;97955.50;7036530;28;20234;-80
2023/04/22 13:33:15;;;;;;;2.27;1.70;;;;;;;28.52;22.39;97955.97;7034039;28;20220;-80
2023/04/22 13:36:37;;;;;;;3.17;2.00;;;;;;;29.00;23.04;97942.25;7035660;28;20210;-80
2023/04/22 13:39:58;;;;;;;2.57;2.10;;;;;;;28.44;23.19;97924.44;7035907;28;20231;-85
2023/04/22 13:43:20;;;;;;;3.00;2.10;;;;;;;28.68;22.92;97943.09;7035841;28;20246;-83
2023/04/22 13:46:43;;;;;;;3.50;2.10;;;;;;;28.44;23.27;97946.63;7036749;28;20205;-81
2023/04/22 13:50:06;;;;;;;3.07;2.07;;;;;;;28.86;23.17;97944.53;7036281;28;20241;-83
2023/04/22 13:53:28;;;;;;;4.57;1.93;;;;;;;28.63;22.87;97924.72;7035148;28;20282;-80
2023/04/22 13:56:49;;;;;;;6.70;2.27;;;;;;;28.25;23.23;97934.38;7036535;28;20603;-80
2023/04/22 14:00:12;;;;;;;3.30;2.10;;;;;;;28.83;23.33;97939.66;7022280;28;20207;-80
2023/04/22 14:03:35;;;;;;;2.43;2.00;;;;;;;28.77;22.73;97933.50;7007796;28;20233;-80
2023/04/22 14:06:56;;;;;;;2.33;1.90;;;;;;;28.31;23.41;97930.22;7008913;28;20247;-80
2023/04/22 14:10:19;;;;;;;3.77;2.20;;;;;;;27.55;27.09;97937.94;7011983;28;20293;-81
2023/04/22 14:13:41;;;;;;;2.60;2.40;;;;;;;27.86;27.59;97930.13;7034953;28;20226;-81
2023/04/22 14:17:02;;;;;;;3.33;2.40;;;;;;;27.00;28.52;97933.66;7036622;28;20198;-80
2023/04/22 14:20:25;;;;;;;4.77;2.40;;;;;;;27.32;27.40;97933.84;7036328;28;20253;-80
2023/04/22 14:23:47;;;;;;;4.40;2.20;;;;;;;27.68;27.19;97956.31;7035101;28;20225;-80
2023/04/22 14:27:08;;;;;;;4.07;2.80;;;;;;;26.96;29.24;97950.13;7016607;28;20714;-81
2023/04/22 14:30:30;;;;;;;3.80;2.37;;;;;;;26.69;28.09;97936.72;7008723;28;20293;-80
2023/04/22 14:33:52;;;;;;;2.33;2.13;;;;;;;26.89;27.52;97932.44;7007516;28;20370;-81
2023/04/22 14:37:15;;;;;;;4.40;1.97;;;;;;;27.23;27.21;97958.03;7029581;28;20202;-80
2023/04/22 14:40:37;;;;;;;3.07;2.20;;;;;;;26.91;27.65;97944.78;7034048;28;20226;-80
2023/04/22 14:43:58;;;;;;;2.50;2.30;;;;;;;26.67;27.64;97950.03;7032283;28;20312;-79
2023/04/22 14:47:20;;;;;;;4.00;2.10;;;;;;;26.59;27.59;97948.13;7026742;28;20212;-79
2023/04/22 14:50:42;;;;;;;4.53;2.60;;;;;;;26.65;27.21;97955.09;7004483;28;20320;-79
2023/04/22 14:54:05;;;;;;;2.30;2.10;;;;;;;26.34;27.14;97920.47;7009798;28;20321;-78
2023/04/22 14:57:27;;;;;;;2.73;2.03;;;;;;;26.12;28.39;97942.81;7035073;28;20350;-79
2023/04/22 15:00:49;;;;;;;3.47;2.10;;;;;;;26.38;27.75;97943.59;7030458;28;20340;-79
2023/04/22 15:04:12;;;;;;;4.63;2.30;;;;;;;26.49;27.36;97947.63;7034591;28;20598;-78
2023/04/22 15:07:33;;;;;;;2.77;2.47;;;;;;;25.99;28.72;97946.53;7034289;28;20254;-79
2023/04/22 15:10:58;;;;;;;2.87;2.50;;;;;;;26.12;28.20;97954.66;7034365;28;20292;-79
2023/04/22 15:14:20;;;;;;;2.33;2.13;;;;;;;25.76;28.57;97925.69;7032759;28;20341;-79
2023/04/22 15:17:42;;;;;;;3.63;1.97;;;;;;;26.32;27.70;97942.91;7034644;28;20646;-78
2023/04/22 15:21:05;;;;;;;3.97;2.30;;;;;;;26.46;27.81;97956.56;7033067;28;20203;-80
2023/04/22 15:24:27;;;;;;;2.57;2.10;;;;;;;26.46;27.38;97948.28;7033032;28;20233;-79
2023/04/22 15:27:51;;;;;;;2.90;2.00;;;;;;;25.89;28.02;97953.16;7035289;28;20320;-79
2023/04/22 15:31:12;;;;;;;2.50;2.30;;;;;;;26.31;28.28;97957.88;7035065;28;20206;-79
2023/04/22 15:34:34;;;;;;;4.23;2.23;;;;;;;26.65;27.19;97946.00;7018761;28;20638;-79
2023/04/22 15:37:57;;;;;;;3.60;2.50;;;;;;;26.76;27.44;97955.56;7033930;28;20250;-83
2023/04/22 15:41:19;;;;;;;8.40;5.13;;;;;;;27.02;26.96;97948.78;7023982;28;20201;-82
2023/04/22 15:44:41;;;;;;;3.20;2.33;;;;;;;27.00;26.24;97945.56;7034105;28;20278;-80
2023/04/22 15:48:04;;;;;;;3.37;2.40;;;;;;;27.26;26.37;97962.06;7047225;28;20274;-79
2023/04/22 15:51:26;;;;;;;2.23;1.97;;;;;;;26.77;26.50;97948.91;7053834;28;20201;-80
2023/04/22 15:54:48;;;;;;;2.97;2.33;;;;;;;26.89;26.83;97947.06;7025900;28;20221;-80